West Valley, New York
Current Conditions -  °F | °C
As of 4:35 AM on Friday 28 Nov 2014 (Local Time) from KOLE Reporting Station
Light Snow Light Snow  
Wind Chill: 10°   Ceiling: 2200
Heat Index: 19°   Visibility: 2.5mi
Dew Point: 19°   Wind: 7mph
Humidity: 100%   Direction: 340°NNW
Pressure: 30.09"   Gusts: NA
Location:  42.4°N, 78.61°W
Report Text: KOLE 280935Z AUTO 34006KT 2 1/2SM -SN BKN022 OVC033 M07/M07 A3009 RMK AO2 VIS 1V4
Loading
Personal Weather Stations






























Interactive Weather Map New forecast layout! Learn more

10-Day Weather Forecast

Advertisements
Track Severe Weather on mobile